createdAt,value
2022-09-29T00:00:37.880Z,58.20
2022-09-29T00:03:05.398Z,58.20
2022-09-29T00:05:32.500Z,58.30
2022-09-29T00:07:59.506Z,58.20
2022-09-29T00:10:26.410Z,58.20
2022-09-29T00:12:54.328Z,58.20
2022-09-29T00:15:21.510Z,58.30
2022-09-29T00:18:12.106Z,58.20
2022-09-29T00:20:36.054Z,58.30
2022-09-29T00:23:03.616Z,58.30
2022-09-29T00:25:30.634Z,58.20
2022-09-29T00:27:57.488Z,58.20
2022-09-29T00:30:24.292Z,58.10
2022-09-29T00:32:51.078Z,58.30
2022-09-29T00:35:18.424Z,58.00
2022-09-29T00:37:45.338Z,58.20
2022-09-29T00:40:12.516Z,58.00
2022-09-29T00:42:39.409Z,58.10
2022-09-29T00:45:22.178Z,58.30
2022-09-29T00:48:12.823Z,57.90
2022-09-29T00:50:45.346Z,58.10
2022-09-29T00:53:16.650Z,58.10
2022-09-29T00:56:09.320Z,58.80
2022-09-29T00:58:42.710Z,58.20
2022-09-29T01:01:11.356Z,58.40
2022-09-29T01:03:43.462Z,58.50
2022-09-29T01:06:44.412Z,58.50
2022-09-29T01:09:16.952Z,57.80
2022-09-29T01:11:43.850Z,58.30
2022-09-29T01:14:11.906Z,58.30
2022-09-29T01:16:39.945Z,58.30
2022-09-29T01:19:11.556Z,59.50
2022-09-29T01:21:54.179Z,58.50
2022-09-29T01:24:48.251Z,58.50
2022-09-29T01:27:36.585Z,58.00
2022-09-29T01:30:20.897Z,58.00
2022-09-29T01:33:02.083Z,58.80
2022-09-29T01:35:45.359Z,59.10
2022-09-29T01:38:20.898Z,59.20
2022-09-29T01:41:20.859Z,59.20
2022-09-29T01:43:57.274Z,59.30
2022-09-29T01:46:30.825Z,59.50
2022-09-29T01:49:00.927Z,59.90
2022-09-29T01:51:50.796Z,59.50
2022-09-29T01:54:28.352Z,59.10
2022-09-29T01:57:02.456Z,59.40
2022-09-29T01:59:36.799Z,59.10
2022-09-29T02:02:10.384Z,59.20
2022-09-29T02:04:42.786Z,59.40
2022-09-29T02:07:18.687Z,59.30
2022-09-29T02:09:50.948Z,59.30
2022-09-29T02:12:23.384Z,59.10
2022-09-29T02:14:53.629Z,58.90
2022-09-29T02:17:24.439Z,59.40
2022-09-29T02:19:52.322Z,58.80
2022-09-29T02:22:20.079Z,58.70
2022-09-29T02:24:47.805Z,58.90
2022-09-29T02:27:14.934Z,58.80
2022-09-29T02:29:42.317Z,59.10
2022-09-29T02:32:09.911Z,59.00
2022-09-29T02:34:46.016Z,59.20
2022-09-29T02:37:23.279Z,59.20
2022-09-29T02:40:32.437Z,58.80
2022-09-29T02:43:39.992Z,59.00
2022-09-29T02:46:24.724Z,58.90
2022-09-29T02:49:09.840Z,59.20
2022-09-29T02:51:38.170Z,59.40
2022-09-29T02:54:43.236Z,59.40
2022-09-29T02:57:32.325Z,59.20
2022-09-29T03:00:09.657Z,59.40
2022-09-29T03:02:37.876Z,59.20
2022-09-29T03:05:08.035Z,59.40
2022-09-29T03:07:37.093Z,59.40
2022-09-29T03:10:05.329Z,59.60
2022-09-29T03:12:32.193Z,59.50
2022-09-29T03:14:59.177Z,59.70
2022-09-29T03:17:25.953Z,59.90
2022-09-29T03:19:52.807Z,60.50
2022-09-29T03:22:19.674Z,59.90
2022-09-29T03:24:46.469Z,59.80
2022-09-29T03:27:13.447Z,59.80
2022-09-29T03:29:40.343Z,59.70
2022-09-29T03:32:07.655Z,59.60
2022-09-29T03:34:35.421Z,59.80
2022-09-29T03:37:02.421Z,59.90
2022-09-29T03:39:29.452Z,60.10
2022-09-29T03:41:56.519Z,60.50
2022-09-29T03:44:23.387Z,60.30
2022-09-29T03:46:50.277Z,60.70
2022-09-29T03:49:18.262Z,60.10
2022-09-29T03:51:45.152Z,61.00
2022-09-29T03:54:12.391Z,60.40
2022-09-29T03:56:39.328Z,60.50
2022-09-29T03:59:09.329Z,60.30
2022-09-29T04:01:38.213Z,60.10
2022-09-29T04:04:06.934Z,60.00
2022-09-29T04:06:34.012Z,59.80
2022-09-29T04:09:00.874Z,60.60
2022-09-29T04:11:28.174Z,60.20
2022-09-29T04:13:55.084Z,60.30
2022-09-29T04:16:21.950Z,60.00
2022-09-29T04:18:48.839Z,60.30
2022-09-29T04:21:16.808Z,60.40
2022-09-29T04:23:43.695Z,60.10
2022-09-29T04:26:10.843Z,59.80
2022-09-29T04:28:38.747Z,59.40
2022-09-29T04:31:06.055Z,59.70
2022-09-29T04:33:33.119Z,59.90
2022-09-29T04:36:00.452Z,59.80
2022-09-29T04:38:27.886Z,60.00
2022-09-29T04:40:54.830Z,60.00
2022-09-29T04:43:21.708Z,59.70
2022-09-29T04:45:48.522Z,59.80
2022-09-29T04:48:15.569Z,59.20
2022-09-29T04:50:43.312Z,59.80
2022-09-29T04:53:11.472Z,60.60
2022-09-29T04:55:38.775Z,61.20
2022-09-29T04:58:05.882Z,61.20
2022-09-29T05:00:32.894Z,61.40
2022-09-29T05:03:00.487Z,61.70
2022-09-29T05:05:27.378Z,61.50
2022-09-29T05:07:54.314Z,61.40
2022-09-29T05:10:21.246Z,62.30
2022-09-29T05:12:50.231Z,63.00
2022-09-29T05:15:22.230Z,63.40
2022-09-29T05:17:52.473Z,63.60
2022-09-29T05:20:19.434Z,63.80
2022-09-29T05:22:46.223Z,64.50
2022-09-29T05:25:13.123Z,63.90
2022-09-29T05:27:39.945Z,64.10
2022-09-29T05:30:07.271Z,63.40
2022-09-29T05:32:34.173Z,62.70
2022-09-29T05:35:01.078Z,62.50
2022-09-29T05:37:27.917Z,62.60
2022-09-29T05:39:54.977Z,62.70
2022-09-29T05:42:21.948Z,62.40
2022-09-29T05:44:48.782Z,62.90
2022-09-29T05:47:15.601Z,63.60
2022-09-29T05:49:42.494Z,62.90
2022-09-29T05:52:09.288Z,62.90
2022-09-29T05:54:36.114Z,62.70
2022-09-29T05:57:02.962Z,62.60
2022-09-29T05:59:30.034Z,61.50
2022-09-29T06:01:57.415Z,62.30
2022-09-29T06:04:24.286Z,62.00
2022-09-29T06:06:51.315Z,62.00
2022-09-29T06:09:18.333Z,61.90
2022-09-29T06:11:45.169Z,62.10
2022-09-29T06:14:12.155Z,62.30
2022-09-29T06:16:39.147Z,62.20
2022-09-29T06:19:06.016Z,62.30
2022-09-29T06:21:35.274Z,62.30
2022-09-29T06:24:02.434Z,62.40
2022-09-29T06:26:30.008Z,61.90
2022-09-29T06:28:57.447Z,62.60
2022-09-29T06:31:26.561Z,62.30
2022-09-29T06:33:56.079Z,62.00
2022-09-29T06:36:56.751Z,62.10
2022-09-29T06:39:23.706Z,61.90
2022-09-29T06:41:56.107Z,62.10
2022-09-29T06:44:28.547Z,62.10
2022-09-29T06:46:55.832Z,62.50
2022-09-29T06:49:23.685Z,62.10
2022-09-29T06:51:51.115Z,62.80
2022-09-29T06:54:24.660Z,62.30
2022-09-29T06:56:52.950Z,62.50
2022-09-29T06:59:20.183Z,62.50
2022-09-29T07:01:50.555Z,62.40
2022-09-29T07:04:19.170Z,62.20
2022-09-29T07:06:46.005Z,62.10
2022-09-29T07:09:16.386Z,62.40
2022-09-29T07:11:49.724Z,62.50
2022-09-29T07:14:18.078Z,62.20
2022-09-29T07:16:46.767Z,62.40
2022-09-29T07:19:13.922Z,62.60
2022-09-29T07:21:40.760Z,62.50
2022-09-29T07:24:08.898Z,62.20
2022-09-29T07:26:36.202Z,62.30
2022-09-29T07:29:03.204Z,62.10
2022-09-29T07:31:33.213Z,61.90
2022-09-29T07:34:02.818Z,62.00
2022-09-29T07:36:29.650Z,61.60
2022-09-29T07:38:56.450Z,61.30
2022-09-29T07:41:24.026Z,61.40
2022-09-29T07:43:51.218Z,60.60
2022-09-29T07:46:18.101Z,61.00
2022-09-29T07:48:45.153Z,61.00
2022-09-29T07:51:14.947Z,60.90
2022-09-29T07:53:42.648Z,60.60
2022-09-29T07:56:18.697Z,60.70
2022-09-29T07:58:47.214Z,60.10
2022-09-29T08:01:16.200Z,59.70
2022-09-29T08:03:49.000Z,59.90
2022-09-29T08:06:15.909Z,59.70
2022-09-29T08:08:54.508Z,59.80
2022-09-29T08:11:31.110Z,59.90
2022-09-29T08:13:58.363Z,59.50
2022-09-29T08:16:25.493Z,59.20
2022-09-29T08:18:52.483Z,59.40
2022-09-29T08:21:19.468Z,59.60
2022-09-29T08:23:46.329Z,59.60
2022-09-29T08:26:15.586Z,59.90
2022-09-29T08:28:43.553Z,59.60
2022-09-29T08:31:14.184Z,59.60
2022-09-29T08:33:41.249Z,59.80
2022-09-29T08:36:15.027Z,60.10
2022-09-29T08:38:46.684Z,59.70
2022-09-29T08:41:43.315Z,60.00
2022-09-29T08:44:35.781Z,60.00
2022-09-29T08:47:16.663Z,59.50
2022-09-29T08:49:46.122Z,59.80
2022-09-29T08:52:19.213Z,60.10
2022-09-29T08:54:49.433Z,59.20
2022-09-29T08:57:19.441Z,59.50
2022-09-29T09:00:00.030Z,59.40
2022-09-29T09:02:38.629Z,59.00
2022-09-29T09:05:24.415Z,58.70
2022-09-29T09:08:30.427Z,58.10
2022-09-29T09:11:32.070Z,59.40
2022-09-29T09:14:13.899Z,58.80
2022-09-29T09:16:55.179Z,58.30
2022-09-29T09:19:47.013Z,58.50
2022-09-29T09:22:52.359Z,58.60
2022-09-29T09:25:33.778Z,57.60
2022-09-29T09:28:35.065Z,57.80
2022-09-29T09:31:17.859Z,57.80
2022-09-29T09:34:16.017Z,57.50
2022-09-29T09:37:08.750Z,57.80
2022-09-29T09:39:43.315Z,58.60
2022-09-29T09:42:22.219Z,57.50
2022-09-29T09:45:07.116Z,57.30
2022-09-29T09:47:46.762Z,57.40
2022-09-29T09:50:17.717Z,57.50
2022-09-29T09:52:52.125Z,57.30
2022-09-29T09:55:27.718Z,57.80
2022-09-29T09:57:54.575Z,57.30
2022-09-29T10:00:32.474Z,57.30
2022-09-29T10:03:06.481Z,57.30
2022-09-29T10:05:40.098Z,57.30
2022-09-29T10:08:11.990Z,57.40
2022-09-29T10:10:56.539Z,57.20
2022-09-29T10:13:30.443Z,57.30
2022-09-29T10:16:06.572Z,57.90
2022-09-29T10:18:42.648Z,56.80
2022-09-29T10:21:32.959Z,58.00
2022-09-29T10:24:01.348Z,56.40
2022-09-29T10:26:44.665Z,56.10
2022-09-29T10:29:23.660Z,55.80
2022-09-29T10:32:14.893Z,56.60
2022-09-29T10:34:46.211Z,56.30
2022-09-29T10:37:23.833Z,55.70
2022-09-29T10:39:51.646Z,56.70
2022-09-29T10:42:39.218Z,56.60
2022-09-29T10:45:16.644Z,56.70
2022-09-29T10:48:06.037Z,56.90
2022-09-29T10:50:37.700Z,56.70
2022-09-29T10:53:25.897Z,56.50
2022-09-29T10:55:56.341Z,56.10
2022-09-29T11:01:21.815Z,55.60
2022-09-29T11:04:05.802Z,56.20
2022-09-29T11:06:35.764Z,56.20
2022-09-29T11:09:05.409Z,56.20
2022-09-29T11:11:38.111Z,56.70
2022-09-29T11:14:05.591Z,56.60
2022-09-29T11:16:34.152Z,57.40
2022-09-29T11:19:13.673Z,56.00
2022-09-29T11:22:08.884Z,55.30
2022-09-29T11:24:51.074Z,55.80
2022-09-29T11:27:26.644Z,55.50
2022-09-29T11:30:35.668Z,55.40
2022-09-29T11:33:27.190Z,55.20
2022-09-29T11:36:08.918Z,55.60
2022-09-29T11:38:59.354Z,57.60
2022-09-29T11:41:40.205Z,56.30
2022-09-29T11:44:21.976Z,55.30
2022-09-29T11:47:20.784Z,55.10
2022-09-29T11:50:23.709Z,56.70
2022-09-29T11:53:21.528Z,56.50
2022-09-29T11:56:17.285Z,55.80
2022-09-29T11:58:47.168Z,55.90
2022-09-29T12:01:34.738Z,55.30
2022-09-29T12:04:09.918Z,56.10
2022-09-29T12:06:48.468Z,56.20
2022-09-29T12:09:40.863Z,55.60
2022-09-29T12:12:23.681Z,55.60
2022-09-29T12:15:03.985Z,56.50
2022-09-29T12:17:36.129Z,55.20
2022-09-29T12:20:14.764Z,55.60
2022-09-29T12:22:45.682Z,56.10
2022-09-29T12:25:19.729Z,56.10
2022-09-29T12:27:49.703Z,55.70
2022-09-29T12:30:39.792Z,56.40
2022-09-29T12:33:18.403Z,56.20
2022-09-29T12:36:50.566Z,55.70
2022-09-29T12:39:38.586Z,56.10
2022-09-29T12:42:16.648Z,55.50
2022-09-29T12:44:53.797Z,55.60
2022-09-29T12:47:26.370Z,56.60
2022-09-29T12:50:05.648Z,55.40
2022-09-29T12:52:41.782Z,55.40
2022-09-29T12:55:26.861Z,55.20
2022-09-29T12:57:58.436Z,54.40
2022-09-29T13:00:26.541Z,54.70
2022-09-29T13:03:23.161Z,55.70
2022-09-29T13:06:27.551Z,55.10
2022-09-29T13:09:14.314Z,54.50
2022-09-29T13:12:08.978Z,54.70
2022-09-29T13:15:08.244Z,54.30
2022-09-29T13:17:49.179Z,54.80
2022-09-29T13:20:24.303Z,55.40
2022-09-29T13:23:12.681Z,56.10
2022-09-29T13:26:13.691Z,53.90
2022-09-29T13:28:46.991Z,53.50
2022-09-29T13:31:32.547Z,56.10
2022-09-29T13:34:02.567Z,54.10
2022-09-29T13:36:36.556Z,54.10
2022-09-29T13:39:17.949Z,54.20
2022-09-29T13:41:44.891Z,54.90
2022-09-29T13:44:29.902Z,54.10
2022-09-29T13:46:57.249Z,54.40
2022-09-29T13:49:26.010Z,54.00
2022-09-29T13:51:55.869Z,54.20
2022-09-29T13:54:37.811Z,53.00
2022-09-29T13:57:28.332Z,53.80
2022-09-29T13:59:55.636Z,54.10
2022-09-29T14:02:38.640Z,53.50
2022-09-29T14:05:21.663Z,53.10
2022-09-29T14:07:52.104Z,53.00
2022-09-29T14:10:25.536Z,52.90
2022-09-29T14:13:00.039Z,53.10
2022-09-29T14:15:28.711Z,53.60
2022-09-29T14:18:03.203Z,53.20
2022-09-29T14:20:35.049Z,53.60
2022-09-29T14:23:07.393Z,53.90
2022-09-29T14:25:53.438Z,54.00
2022-09-29T14:28:25.636Z,52.70
2022-09-29T14:30:55.423Z,52.90
2022-09-29T14:33:27.308Z,52.80
2022-09-29T14:36:00.237Z,53.50
2022-09-29T14:38:42.690Z,53.50
2022-09-29T14:41:10.498Z,53.70
2022-09-29T14:43:45.720Z,54.20
2022-09-29T14:46:56.194Z,54.70
2022-09-29T14:50:00.726Z,55.30
2022-09-29T14:52:55.347Z,55.30
2022-09-29T14:55:47.495Z,56.60
2022-09-29T14:58:58.599Z,56.30
2022-09-29T15:01:30.557Z,56.60
2022-09-29T15:04:05.546Z,56.70
2022-09-29T15:06:32.707Z,56.90
2022-09-29T15:09:20.517Z,56.90
2022-09-29T15:12:04.361Z,56.70
2022-09-29T15:14:39.423Z,56.90
2022-09-29T15:17:30.521Z,56.20
2022-09-29T15:20:15.359Z,56.20
2022-09-29T15:23:02.947Z,56.10
2022-09-29T15:25:31.210Z,55.90
2022-09-29T15:28:05.512Z,56.90
2022-09-29T15:30:33.237Z,56.80
2022-09-29T15:33:21.160Z,56.90
2022-09-29T15:35:56.257Z,57.10
2022-09-29T15:38:23.005Z,56.20
2022-09-29T15:40:59.097Z,56.20
2022-09-29T15:43:28.475Z,55.90
2022-09-29T15:46:00.986Z,56.20
2022-09-29T15:48:29.578Z,56.70
2022-09-29T15:50:58.400Z,56.30
2022-09-29T15:53:27.759Z,56.50
2022-09-29T15:55:55.742Z,56.60
2022-09-29T15:58:44.319Z,56.80
2022-09-29T16:01:13.661Z,56.30
2022-09-29T16:03:52.764Z,56.50
2022-09-29T16:06:28.284Z,56.20
2022-09-29T16:09:04.513Z,56.30
2022-09-29T16:11:34.839Z,56.60
2022-09-29T16:14:09.750Z,56.20
2022-09-29T16:16:42.814Z,56.20
2022-09-29T16:19:31.864Z,56.50
2022-09-29T16:22:01.914Z,56.40
2022-09-29T16:24:35.330Z,56.50
2022-09-29T16:27:03.034Z,56.60
2022-09-29T16:29:35.198Z,56.50
2022-09-29T16:32:33.543Z,55.50
2022-09-29T16:35:39.161Z,56.60
2022-09-29T16:38:40.242Z,56.10
2022-09-29T16:41:19.862Z,56.00
2022-09-29T16:43:47.805Z,55.90
2022-09-29T16:46:20.645Z,55.80
2022-09-29T16:48:49.360Z,55.70
2022-09-29T16:51:39.851Z,55.70
2022-09-29T16:54:18.170Z,55.60
2022-09-29T16:56:47.534Z,55.40
2022-09-29T16:59:16.818Z,55.50
2022-09-29T17:01:46.256Z,55.50
2022-09-29T17:04:13.475Z,55.60
2022-09-29T17:06:47.234Z,56.00
2022-09-29T17:09:25.570Z,55.90
2022-09-29T17:11:52.553Z,56.00
2022-09-29T17:14:21.484Z,56.50
2022-09-29T17:16:51.615Z,56.60
2022-09-29T17:19:19.646Z,56.70
2022-09-29T17:21:46.480Z,56.40
2022-09-29T17:24:13.236Z,56.50
2022-09-29T17:27:05.296Z,56.80
2022-09-29T17:29:32.703Z,57.00
2022-09-29T17:32:02.279Z,57.20
2022-09-29T17:34:29.848Z,57.20
2022-09-29T17:37:02.021Z,57.50
2022-09-29T17:39:29.518Z,57.70
2022-09-29T17:41:57.340Z,57.70
2022-09-29T17:44:25.129Z,57.50
2022-09-29T17:46:57.213Z,57.70
2022-09-29T17:49:28.052Z,57.80
2022-09-29T17:51:54.929Z,57.90
2022-09-29T17:54:27.109Z,58.20
2022-09-29T17:56:55.292Z,58.40
2022-09-29T17:59:24.097Z,58.60
2022-09-29T18:01:51.013Z,58.70
2022-09-29T18:04:17.997Z,58.90
2022-09-29T18:06:45.211Z,59.10
2022-09-29T18:09:16.758Z,59.30
2022-09-29T18:11:43.938Z,59.10
2022-09-29T18:14:10.891Z,59.10
2022-09-29T18:16:37.789Z,59.00
2022-09-29T18:19:06.904Z,59.00
2022-09-29T18:21:34.028Z,58.90
2022-09-29T18:24:01.100Z,58.90
2022-09-29T18:26:27.943Z,59.10
2022-09-29T18:28:55.688Z,58.80
2022-09-29T18:31:27.699Z,58.90
2022-09-29T18:33:54.952Z,58.50
2022-09-29T18:36:21.870Z,58.60
2022-09-29T18:38:48.950Z,58.30
2022-09-29T18:41:23.168Z,58.40
2022-09-29T18:43:50.205Z,58.30
2022-09-29T18:46:17.667Z,58.70
2022-09-29T18:48:45.044Z,58.60
2022-09-29T18:51:13.685Z,58.80
2022-09-29T18:53:42.101Z,58.90
2022-09-29T18:56:16.931Z,59.00
2022-09-29T18:58:44.622Z,58.90
2022-09-29T19:01:18.506Z,58.90
2022-09-29T19:03:45.415Z,59.00
2022-09-29T19:06:15.957Z,59.10
2022-09-29T19:08:49.206Z,59.00
2022-09-29T19:11:24.956Z,58.80
2022-09-29T19:13:54.287Z,58.70
2022-09-29T19:16:22.648Z,58.90
2022-09-29T19:18:49.556Z,58.80
2022-09-29T19:21:16.836Z,58.90
2022-09-29T19:23:46.813Z,59.00
2022-09-29T19:26:19.400Z,59.10
2022-09-29T19:28:48.216Z,59.20
2022-09-29T19:31:19.355Z,59.20
2022-09-29T19:33:47.497Z,59.10
2022-09-29T19:36:17.773Z,59.20
2022-09-29T19:38:45.326Z,59.00
2022-09-29T19:41:21.275Z,59.10
2022-09-29T19:43:48.712Z,59.30
2022-09-29T19:46:16.716Z,59.20
2022-09-29T19:48:44.489Z,59.00
2022-09-29T19:51:36.697Z,59.00
2022-09-29T19:54:14.406Z,59.00
2022-09-29T19:56:50.179Z,58.90
2022-09-29T19:59:35.130Z,58.90
2022-09-29T20:02:03.503Z,59.00
2022-09-29T20:04:33.311Z,59.10
2022-09-29T20:07:00.564Z,58.80
2022-09-29T20:09:28.526Z,58.70
2022-09-29T20:11:56.991Z,58.80
2022-09-29T20:14:24.877Z,59.60
2022-09-29T20:16:53.851Z,59.50
2022-09-29T20:19:22.339Z,59.40
2022-09-29T20:21:53.127Z,59.50
2022-09-29T20:24:24.134Z,59.40
2022-09-29T20:26:51.827Z,59.60
2022-09-29T20:29:22.973Z,59.70
2022-09-29T20:31:50.064Z,59.60
2022-09-29T20:34:18.774Z,59.60
2022-09-29T20:36:47.787Z,59.70
2022-09-29T20:39:19.058Z,59.50
2022-09-29T20:41:46.180Z,59.30
2022-09-29T20:44:13.248Z,59.40
2022-09-29T20:46:40.962Z,59.40
2022-09-29T20:49:09.822Z,59.50
2022-09-29T20:51:38.180Z,59.60
2022-09-29T20:54:05.190Z,59.50
2022-09-29T20:56:35.982Z,59.40
2022-09-29T20:59:03.196Z,59.60
2022-09-29T21:01:31.374Z,59.60
2022-09-29T21:04:10.350Z,59.50
2022-09-29T21:06:41.021Z,59.30
2022-09-29T21:09:11.382Z,59.50
2022-09-29T21:11:40.175Z,59.50
2022-09-29T21:14:18.517Z,59.50
2022-09-29T21:16:48.660Z,59.40
2022-09-29T21:19:15.668Z,59.50
2022-09-29T21:21:43.905Z,59.50
2022-09-29T21:24:12.391Z,59.60
2022-09-29T21:26:39.596Z,59.60
2022-09-29T21:29:08.930Z,59.30
2022-09-29T21:31:36.618Z,59.40
2022-09-29T21:34:05.937Z,58.80
2022-09-29T21:36:35.005Z,58.60
2022-09-29T21:39:07.606Z,58.50
2022-09-29T21:41:38.643Z,58.50
2022-09-29T21:44:12.904Z,58.50
2022-09-29T21:46:41.084Z,58.40
2022-09-29T21:49:09.741Z,58.50
2022-09-29T21:51:38.932Z,58.60
2022-09-29T21:54:08.007Z,58.70
2022-09-29T21:56:36.533Z,58.80
2022-09-29T21:59:03.435Z,58.70
2022-09-29T22:01:31.327Z,58.80
2022-09-29T22:03:58.992Z,58.50
2022-09-29T22:06:28.745Z,58.80
2022-09-29T22:08:56.771Z,58.60
2022-09-29T22:11:26.382Z,58.70
2022-09-29T22:13:55.969Z,58.70
2022-09-29T22:16:26.066Z,58.90
2022-09-29T22:19:18.501Z,58.80
2022-09-29T22:21:40.683Z,58.60
2022-09-29T22:24:07.659Z,58.70
2022-09-29T22:26:34.550Z,58.60
2022-09-29T22:29:02.689Z,58.60
2022-09-29T22:31:31.421Z,58.60
2022-09-29T22:34:00.450Z,58.80
2022-09-29T22:36:30.322Z,58.70
2022-09-29T22:38:57.511Z,58.80
2022-09-29T22:41:24.807Z,58.60
2022-09-29T22:43:56.278Z,58.80
2022-09-29T22:46:25.792Z,58.80
2022-09-29T22:48:53.138Z,58.60
2022-09-29T22:51:23.591Z,58.60
2022-09-29T22:53:50.836Z,58.70
2022-09-29T22:56:20.178Z,58.70
2022-09-29T22:58:48.837Z,58.80
2022-09-29T23:01:17.129Z,58.70
2022-09-29T23:03:45.489Z,58.70
2022-09-29T23:06:13.586Z,58.70
2022-09-29T23:08:41.265Z,58.50
2022-09-29T23:11:14.381Z,58.60
2022-09-29T23:13:41.297Z,58.40
2022-09-29T23:16:12.675Z,58.70
2022-09-29T23:18:44.824Z,58.40
2022-09-29T23:21:19.537Z,58.50
2022-09-29T23:23:55.706Z,58.40
2022-09-29T23:26:23.681Z,58.40
2022-09-29T23:28:50.755Z,58.50
2022-09-29T23:31:17.797Z,58.40
2022-09-29T23:33:44.874Z,58.40
2022-09-29T23:36:13.605Z,58.50
2022-09-29T23:39:00.851Z,58.70
2022-09-29T23:41:30.122Z,58.50
2022-09-29T23:43:59.881Z,58.40
2022-09-29T23:46:31.580Z,58.40
2022-09-29T23:49:04.369Z,58.40
2022-09-29T23:51:32.212Z,58.20
2022-09-29T23:54:00.000Z,58.30
2022-09-29T23:56:27.537Z,58.30
2022-09-29T23:58:55.287Z,58.30
